createdAt,value
2022-10-19T00:01:38.915Z,10.27
2022-10-19T00:04:08.656Z,10.16
2022-10-19T00:06:36.858Z,10.29
2022-10-19T00:09:09.900Z,10.16
2022-10-19T00:11:40.539Z,10.32
2022-10-19T00:14:10.577Z,10.32
2022-10-19T00:16:38.304Z,10.20
2022-10-19T00:19:09.149Z,10.39
2022-10-19T00:21:36.028Z,10.31
2022-10-19T00:24:02.690Z,10.16
2022-10-19T00:26:29.363Z,10.34
2022-10-19T00:28:56.821Z,10.29
2022-10-19T00:31:24.297Z,10.29
2022-10-19T00:33:51.636Z,10.29
2022-10-19T00:36:24.369Z,10.36
2022-10-19T00:38:51.886Z,10.30
2022-10-19T00:41:20.656Z,10.30
2022-10-19T00:44:26.979Z,10.36
2022-10-19T00:46:53.811Z,10.26
2022-10-19T00:49:24.656Z,10.39
2022-10-19T00:51:55.645Z,10.42
2022-10-19T00:54:23.554Z,10.24
2022-10-19T00:56:53.413Z,10.32
2022-10-19T00:59:22.582Z,10.05
2022-10-19T01:01:49.909Z,10.51
2022-10-19T01:04:17.014Z,10.40
2022-10-19T01:06:43.685Z,10.30
2022-10-19T01:09:10.333Z,10.22
2022-10-19T01:12:03.019Z,10.39
2022-10-19T01:14:38.646Z,10.42
2022-10-19T01:17:26.656Z,10.39
2022-10-19T01:20:04.285Z,10.33
2022-10-19T01:22:30.847Z,10.38
2022-10-19T01:25:00.633Z,10.39
2022-10-19T01:27:34.124Z,10.18
2022-10-19T01:30:17.490Z,10.25
2022-10-19T01:32:44.074Z,10.21
2022-10-19T01:35:24.669Z,9.92
2022-10-19T01:38:12.781Z,10.20
2022-10-19T01:40:53.917Z,10.18
2022-10-19T01:43:43.795Z,9.97
2022-10-19T01:46:18.906Z,9.78
2022-10-19T01:48:54.489Z,9.74
2022-10-19T01:51:30.381Z,9.98
2022-10-19T01:54:00.908Z,9.99
2022-10-19T01:56:30.721Z,10.24
2022-10-19T01:59:01.674Z,10.17
2022-10-19T02:01:33.621Z,10.15
2022-10-19T02:04:02.186Z,10.04
2022-10-19T02:06:28.934Z,9.88
2022-10-19T02:08:55.822Z,9.65
2022-10-19T02:11:24.061Z,9.98
2022-10-19T02:14:03.911Z,9.87
2022-10-19T02:16:38.112Z,10.07
2022-10-19T02:19:08.691Z,9.75
2022-10-19T02:21:35.473Z,9.59
2022-10-19T02:24:02.063Z,9.72
2022-10-19T02:26:28.660Z,9.68
2022-10-19T02:28:56.417Z,9.92
2022-10-19T02:31:23.984Z,9.60
2022-10-19T02:33:51.138Z,9.90
2022-10-19T02:36:18.662Z,10.03
2022-10-19T02:38:45.320Z,9.94
2022-10-19T02:41:50.361Z,10.06
2022-10-19T02:44:25.623Z,9.80
2022-10-19T02:46:58.883Z,9.74
2022-10-19T02:49:25.738Z,9.31
2022-10-19T02:52:04.442Z,9.44
2022-10-19T02:54:31.203Z,9.36
2022-10-19T02:56:57.838Z,9.53
2022-10-19T02:59:25.071Z,9.23
2022-10-19T03:01:52.114Z,9.60
2022-10-19T03:04:18.742Z,9.39
2022-10-19T03:06:45.339Z,9.10
2022-10-19T03:09:11.959Z,9.02
2022-10-19T03:11:38.574Z,9.37
2022-10-19T03:14:05.181Z,9.34
2022-10-19T03:16:31.762Z,9.17
2022-10-19T03:18:58.325Z,9.44
2022-10-19T03:21:24.903Z,9.01
2022-10-19T03:23:51.496Z,8.99
2022-10-19T03:26:18.403Z,8.91
2022-10-19T03:28:45.164Z,9.00
2022-10-19T03:31:12.002Z,8.96
2022-10-19T03:33:38.730Z,8.44
2022-10-19T03:36:26.111Z,8.87
2022-10-19T03:38:54.597Z,9.12
2022-10-19T03:41:22.969Z,9.03
2022-10-19T03:43:50.103Z,9.35
2022-10-19T03:46:17.082Z,9.30
2022-10-19T03:48:44.431Z,9.19
2022-10-19T03:51:20.686Z,9.27
2022-10-19T03:53:48.559Z,9.28
2022-10-19T03:56:17.712Z,9.25
2022-10-19T03:58:45.781Z,9.09
2022-10-19T04:01:23.739Z,9.33
2022-10-19T04:03:55.170Z,9.21
2022-10-19T04:06:26.204Z,9.19
2022-10-19T04:08:53.117Z,9.32
2022-10-19T04:11:24.152Z,9.55
2022-10-19T04:13:52.204Z,9.28
2022-10-19T04:16:19.726Z,9.34
2022-10-19T04:18:46.942Z,9.38
2022-10-19T04:21:20.927Z,9.35
2022-10-19T04:23:47.632Z,9.36
2022-10-19T04:26:14.206Z,9.37
2022-10-19T04:28:40.914Z,9.44
2022-10-19T04:31:07.898Z,9.30
2022-10-19T04:33:34.874Z,9.12
2022-10-19T04:36:05.047Z,9.21
2022-10-19T04:38:31.835Z,9.32
2022-10-19T04:41:06.864Z,9.12
2022-10-19T04:43:33.939Z,9.19
2022-10-19T04:46:05.775Z,9.18
2022-10-19T04:48:34.319Z,9.38
2022-10-19T04:51:01.015Z,9.28
2022-10-19T04:53:27.714Z,9.28
2022-10-19T04:55:54.579Z,9.21
2022-10-19T04:58:21.305Z,9.08
2022-10-19T05:00:48.094Z,9.15
2022-10-19T05:03:15.170Z,9.14
2022-10-19T05:05:41.845Z,9.01
2022-10-19T05:08:09.887Z,9.01
2022-10-19T05:10:37.706Z,9.12
2022-10-19T05:13:04.931Z,9.19
2022-10-19T05:15:31.933Z,8.88
2022-10-19T05:17:58.678Z,9.04
2022-10-19T05:20:25.632Z,9.03
2022-10-19T05:22:52.250Z,8.87
2022-10-19T05:25:18.860Z,9.07
2022-10-19T05:27:45.801Z,8.78
2022-10-19T05:30:14.383Z,8.94
2022-10-19T05:32:40.972Z,8.85
2022-10-19T05:35:08.020Z,9.03
2022-10-19T05:37:34.835Z,8.86
2022-10-19T05:40:01.803Z,8.67
2022-10-19T05:42:28.483Z,8.67
2022-10-19T05:44:55.101Z,8.88
2022-10-19T05:47:21.728Z,8.74
2022-10-19T05:49:48.308Z,8.59
2022-10-19T05:52:15.259Z,8.64
2022-10-19T05:54:42.285Z,8.36
2022-10-19T05:57:08.858Z,8.36
2022-10-19T05:59:35.469Z,8.62
2022-10-19T06:02:02.144Z,8.65
2022-10-19T06:04:28.734Z,8.30
2022-10-19T06:06:55.329Z,8.36
2022-10-19T06:09:21.901Z,8.73
2022-10-19T06:11:48.574Z,8.24
2022-10-19T06:14:16.167Z,8.41
2022-10-19T06:16:42.870Z,8.19
2022-10-19T06:19:09.566Z,8.44
2022-10-19T06:21:36.118Z,8.32
2022-10-19T06:24:05.077Z,8.61
2022-10-19T06:26:33.490Z,8.48
2022-10-19T06:29:01.028Z,8.23
2022-10-19T06:31:29.306Z,8.38
2022-10-19T06:33:56.265Z,8.30
2022-10-19T06:36:25.515Z,8.22
2022-10-19T06:38:53.268Z,8.23
2022-10-19T06:41:20.534Z,8.20
2022-10-19T06:43:54.400Z,7.98
2022-10-19T06:46:23.469Z,8.09
2022-10-19T06:49:01.700Z,8.07
2022-10-19T06:51:30.607Z,8.18
2022-10-19T06:53:57.610Z,7.73
2022-10-19T06:56:26.076Z,7.87
2022-10-19T06:58:52.981Z,7.89
2022-10-19T07:01:20.044Z,7.72
2022-10-19T07:03:46.815Z,8.04
2022-10-19T07:06:13.979Z,7.56
2022-10-19T07:08:42.559Z,7.93
2022-10-19T07:11:12.101Z,8.07
2022-10-19T07:13:38.754Z,7.98
2022-10-19T07:16:17.619Z,7.94
2022-10-19T07:18:48.311Z,7.77
2022-10-19T07:21:16.412Z,7.65
2022-10-19T07:23:44.718Z,8.03
2022-10-19T07:26:13.964Z,7.90
2022-10-19T07:28:42.153Z,7.56
2022-10-19T07:31:11.748Z,7.85
2022-10-19T07:33:38.407Z,7.71
2022-10-19T07:36:08.504Z,8.34
2022-10-19T07:38:35.856Z,8.12
2022-10-19T07:41:08.298Z,8.36
2022-10-19T07:43:35.518Z,8.25
2022-10-19T07:46:03.838Z,8.34
2022-10-19T07:48:30.785Z,8.47
2022-10-19T07:50:57.589Z,8.25
2022-10-19T07:53:24.397Z,8.45
2022-10-19T07:55:51.050Z,8.30
2022-10-19T07:58:17.647Z,8.59
2022-10-19T08:00:44.319Z,8.69
2022-10-19T08:03:43.783Z,8.60
2022-10-19T08:06:05.334Z,8.42
2022-10-19T08:08:32.350Z,8.81
2022-10-19T08:11:10.145Z,8.84
2022-10-19T08:13:37.150Z,9.13
2022-10-19T08:16:04.006Z,9.19
2022-10-19T08:21:03.066Z,9.40
2022-10-19T08:23:29.690Z,9.45
2022-10-19T08:25:59.562Z,9.61
2022-10-19T08:28:26.186Z,9.47
2022-10-19T08:30:57.954Z,9.41
2022-10-19T08:33:26.320Z,9.84
2022-10-19T08:35:54.125Z,9.58
2022-10-19T08:38:21.008Z,9.80
2022-10-19T08:40:47.706Z,9.71
2022-10-19T08:43:14.290Z,9.88
2022-10-19T08:45:56.235Z,9.71
2022-10-19T08:48:27.602Z,9.99
2022-10-19T08:50:55.768Z,10.35
2022-10-19T08:53:43.697Z,10.50
2022-10-19T08:59:39.140Z,10.49
2022-10-19T09:02:47.013Z,10.60
2022-10-19T09:05:32.831Z,10.31
2022-10-19T09:08:00.037Z,10.16
2022-10-19T09:10:32.257Z,10.23
2022-10-19T09:13:09.997Z,10.09
2022-10-19T09:15:46.163Z,10.63
2022-10-19T09:18:31.544Z,10.14
2022-10-19T09:21:07.161Z,10.31
2022-10-19T09:23:52.416Z,10.46
2022-10-19T09:26:22.468Z,10.33
2022-10-19T09:29:01.022Z,10.47
2022-10-19T09:31:32.476Z,10.90
2022-10-19T09:34:03.769Z,10.93
2022-10-19T09:36:50.218Z,11.14
2022-10-19T09:39:17.968Z,11.37
2022-10-19T09:41:51.286Z,11.55
2022-10-19T09:44:18.695Z,11.79
2022-10-19T09:46:57.884Z,11.84
2022-10-19T09:49:41.895Z,11.47
2022-10-19T09:52:33.804Z,11.34
2022-10-19T09:55:24.858Z,11.30
2022-10-19T09:58:01.062Z,11.40
2022-10-19T10:00:39.913Z,11.47
2022-10-19T10:03:07.610Z,11.55
2022-10-19T10:05:39.029Z,11.70
2022-10-19T10:08:23.266Z,11.66
2022-10-19T10:11:12.291Z,11.33
2022-10-19T10:13:57.551Z,11.34
2022-10-19T10:16:33.099Z,11.26
2022-10-19T10:19:00.734Z,11.45
2022-10-19T10:21:33.644Z,11.61
2022-10-19T10:24:17.386Z,11.70
2022-10-19T10:26:46.884Z,11.60
2022-10-19T10:29:25.891Z,11.52
2022-10-19T10:31:55.591Z,11.96
2022-10-19T10:34:50.601Z,11.51
2022-10-19T10:37:27.729Z,11.49
2022-10-19T10:39:59.174Z,11.79
2022-10-19T10:42:41.274Z,11.46
2022-10-19T10:45:32.393Z,11.95
2022-10-19T10:48:11.979Z,12.29
2022-10-19T10:50:38.777Z,12.35
2022-10-19T10:53:24.028Z,12.54
2022-10-19T10:55:56.391Z,12.18
2022-10-19T10:58:41.329Z,11.70
2022-10-19T11:01:18.961Z,11.27
2022-10-19T11:03:52.811Z,11.63
2022-10-19T11:09:11.718Z,12.71
2022-10-19T11:11:46.559Z,12.61
2022-10-19T11:14:49.618Z,12.62
2022-10-19T11:17:27.729Z,13.13
2022-10-19T11:19:54.465Z,13.38
2022-10-19T11:22:26.314Z,13.53
2022-10-19T11:25:16.911Z,12.71
2022-10-19T11:28:12.923Z,12.43
2022-10-19T11:31:07.499Z,12.52
2022-10-19T11:36:30.116Z,12.11
2022-10-19T11:39:15.528Z,12.38
2022-10-19T11:41:56.539Z,12.35
2022-10-19T11:44:45.985Z,12.70
2022-10-19T11:47:52.140Z,13.01
2022-10-19T11:50:44.128Z,13.51
2022-10-19T11:53:32.341Z,13.21
2022-10-19T11:56:39.164Z,13.41
2022-10-19T11:59:33.765Z,12.59
2022-10-19T12:02:45.334Z,13.56
2022-10-19T12:05:36.556Z,14.77
2022-10-19T12:08:32.585Z,15.28
2022-10-19T12:11:36.381Z,13.97
2022-10-19T12:14:06.258Z,14.30
2022-10-19T12:16:53.807Z,15.40
2022-10-19T12:19:24.960Z,15.26
2022-10-19T12:21:55.529Z,14.96
2022-10-19T12:24:25.720Z,15.40
2022-10-19T12:26:54.808Z,16.55
2022-10-19T12:29:39.835Z,15.14
2022-10-19T12:32:08.042Z,15.87
2022-10-19T12:35:12.498Z,16.93
2022-10-19T12:37:55.285Z,17.09
2022-10-19T12:40:28.022Z,16.44
2022-10-19T12:43:18.057Z,16.57
2022-10-19T12:46:11.015Z,17.06
2022-10-19T12:48:39.245Z,15.33
2022-10-19T12:51:11.999Z,15.84
2022-10-19T12:53:48.875Z,16.56
2022-10-19T12:56:22.970Z,17.38
2022-10-19T12:59:01.753Z,17.97
2022-10-19T13:01:28.476Z,17.48
2022-10-19T13:04:29.723Z,17.42
2022-10-19T13:06:56.323Z,17.88
2022-10-19T13:09:22.887Z,17.15
2022-10-19T13:12:21.991Z,18.21
2022-10-19T13:14:53.020Z,18.52
2022-10-19T13:17:36.535Z,17.97
2022-10-19T13:20:15.613Z,17.85
2022-10-19T13:22:45.930Z,17.82
2022-10-19T13:25:28.112Z,16.77
2022-10-19T13:28:01.704Z,17.21
2022-10-19T13:30:46.604Z,17.10
2022-10-19T13:33:25.702Z,16.77
2022-10-19T13:35:58.432Z,18.16
2022-10-19T13:38:43.422Z,18.78
2022-10-19T13:41:15.758Z,18.91
2022-10-19T13:44:01.213Z,18.48
2022-10-19T13:46:30.880Z,16.88
2022-10-19T13:49:27.830Z,15.80
2022-10-19T13:52:09.060Z,16.29
2022-10-19T13:55:22.008Z,15.14
2022-10-19T13:58:14.074Z,15.29
2022-10-19T14:01:18.418Z,15.10
2022-10-19T14:04:14.562Z,13.82
2022-10-19T14:07:00.038Z,13.46
2022-10-19T14:09:46.823Z,14.10
2022-10-19T14:12:23.761Z,14.31
2022-10-19T14:14:53.523Z,14.22
2022-10-19T14:17:27.878Z,15.27
2022-10-19T14:19:57.180Z,14.89
2022-10-19T14:22:42.178Z,15.11
2022-10-19T14:25:21.990Z,14.68
2022-10-19T14:27:56.883Z,14.66
2022-10-19T14:30:35.618Z,15.36
2022-10-19T14:33:09.044Z,15.06
2022-10-19T14:35:37.848Z,14.77
2022-10-19T14:38:15.095Z,14.83
2022-10-19T14:40:42.134Z,14.15
2022-10-19T14:43:20.027Z,14.35
2022-10-19T14:46:04.174Z,13.98
2022-10-19T14:48:31.073Z,14.60
2022-10-19T14:50:58.324Z,13.63
2022-10-19T14:53:34.071Z,14.21
2022-10-19T14:56:13.853Z,14.24
2022-10-19T14:59:02.975Z,14.38
2022-10-19T15:01:29.622Z,14.40
2022-10-19T15:03:56.630Z,13.57
2022-10-19T15:06:30.439Z,13.00
2022-10-19T15:09:03.007Z,13.48
2022-10-19T15:11:33.308Z,12.74
2022-10-19T15:14:14.275Z,12.55
2022-10-19T15:16:52.057Z,12.57
2022-10-19T15:19:31.823Z,12.49
2022-10-19T15:22:13.701Z,12.33
2022-10-19T15:24:53.756Z,12.22
2022-10-19T15:27:22.697Z,12.14
2022-10-19T15:30:01.544Z,12.00
2022-10-19T15:32:43.644Z,11.82
2022-10-19T15:35:12.503Z,11.70
2022-10-19T15:37:43.565Z,11.90
2022-10-19T15:40:21.066Z,11.36
2022-10-19T15:42:48.978Z,11.71
2022-10-19T15:45:38.152Z,11.72
2022-10-19T15:48:10.916Z,11.64
2022-10-19T15:50:42.845Z,11.59
2022-10-19T15:53:09.805Z,11.57
2022-10-19T15:55:36.547Z,11.03
2022-10-19T15:58:03.187Z,11.28
2022-10-19T16:00:30.366Z,11.13
2022-10-19T16:02:57.018Z,11.02
2022-10-19T16:05:24.270Z,10.83
2022-10-19T16:07:50.992Z,10.80
2022-10-19T16:10:21.244Z,10.65
2022-10-19T16:12:47.856Z,10.99
2022-10-19T16:15:22.085Z,10.83
2022-10-19T16:18:00.863Z,10.93
2022-10-19T16:20:29.238Z,10.92
2022-10-19T16:22:56.182Z,10.69
2022-10-19T16:25:22.889Z,10.88
2022-10-19T16:27:49.692Z,10.73
2022-10-19T16:30:16.434Z,10.14
2022-10-19T16:32:43.169Z,10.14
2022-10-19T16:35:10.345Z,10.46
2022-10-19T16:37:37.434Z,10.52
2022-10-19T16:40:05.341Z,10.27
2022-10-19T16:42:32.641Z,10.32
2022-10-19T16:44:59.529Z,9.63
2022-10-19T16:47:26.344Z,9.54
2022-10-19T16:50:01.631Z,10.05
2022-10-19T16:52:34.279Z,9.99
2022-10-19T16:55:01.446Z,9.81
2022-10-19T16:57:30.935Z,9.40
2022-10-19T16:59:57.580Z,9.58
2022-10-19T17:02:24.265Z,9.44
2022-10-19T17:04:51.005Z,9.52
2022-10-19T17:07:18.320Z,9.47
2022-10-19T17:09:45.147Z,9.57
2022-10-19T17:12:12.263Z,9.13
2022-10-19T17:14:40.862Z,9.35
2022-10-19T17:17:08.559Z,9.21
2022-10-19T17:19:36.537Z,9.26
2022-10-19T17:22:05.170Z,9.16
2022-10-19T17:24:32.218Z,9.00
2022-10-19T17:27:01.589Z,9.08
2022-10-19T17:29:28.240Z,8.68
2022-10-19T17:31:55.119Z,9.03
2022-10-19T17:34:21.850Z,9.07
2022-10-19T17:36:48.762Z,8.64
2022-10-19T17:39:19.087Z,8.97
2022-10-19T17:41:47.156Z,8.91
2022-10-19T17:44:14.389Z,8.83
2022-10-19T17:46:41.343Z,8.48
2022-10-19T17:49:08.936Z,7.98
2022-10-19T17:51:36.166Z,8.22
2022-10-19T17:54:05.626Z,8.48
2022-10-19T17:56:32.557Z,8.55
2022-10-19T17:59:00.146Z,8.56
2022-10-19T18:01:27.506Z,8.38
2022-10-19T18:03:54.129Z,8.24
2022-10-19T18:06:23.648Z,8.47
2022-10-19T18:08:53.201Z,8.45
2022-10-19T18:11:22.788Z,8.49
2022-10-19T18:13:50.750Z,8.43
2022-10-19T18:16:23.255Z,8.39
2022-10-19T18:18:52.043Z,8.24
2022-10-19T18:21:21.542Z,8.29
2022-10-19T18:23:48.931Z,8.03
2022-10-19T18:26:19.722Z,7.96
2022-10-19T18:28:46.759Z,7.52
2022-10-19T18:31:19.650Z,8.20
2022-10-19T18:33:47.774Z,8.18
2022-10-19T18:36:15.162Z,8.11
2022-10-19T18:38:42.143Z,7.85
2022-10-19T18:43:39.516Z,7.77
2022-10-19T18:46:07.462Z,7.80
2022-10-19T18:48:36.757Z,8.15
2022-10-19T18:51:06.706Z,7.93
2022-10-19T18:53:34.022Z,7.95
2022-10-19T18:56:03.449Z,7.87
2022-10-19T18:58:50.507Z,7.55
2022-10-19T19:01:19.994Z,7.83
2022-10-19T19:03:51.551Z,7.72
2022-10-19T19:06:29.760Z,7.92
2022-10-19T19:08:58.100Z,7.70
2022-10-19T19:11:27.112Z,7.70
2022-10-19T19:14:07.479Z,7.84
2022-10-19T19:16:36.512Z,7.72
2022-10-19T19:19:03.872Z,7.83
2022-10-19T19:21:31.891Z,7.76
2022-10-19T19:24:01.113Z,7.66
2022-10-19T19:26:31.593Z,7.57
2022-10-19T19:28:58.577Z,7.04
2022-10-19T19:31:25.678Z,7.45
2022-10-19T19:33:52.468Z,7.13
2022-10-19T19:36:20.268Z,7.41
2022-10-19T19:38:49.022Z,7.39
2022-10-19T19:41:16.621Z,7.13
2022-10-19T19:43:43.724Z,7.20
2022-10-19T19:46:18.714Z,7.42
2022-10-19T19:48:47.612Z,7.53
2022-10-19T19:51:17.310Z,7.52
2022-10-19T19:53:44.945Z,7.13
2022-10-19T19:56:13.000Z,6.99
2022-10-19T19:58:41.220Z,7.22
2022-10-19T20:01:16.716Z,7.02
2022-10-19T20:03:43.976Z,7.08
2022-10-19T20:06:11.007Z,7.16
2022-10-19T20:08:38.551Z,7.01
2022-10-19T20:11:11.520Z,6.84
2022-10-19T20:13:38.684Z,6.92
2022-10-19T20:16:14.011Z,7.17
2022-10-19T20:18:43.389Z,7.28
2022-10-19T20:21:10.179Z,7.12
2022-10-19T20:23:37.144Z,7.37
2022-10-19T20:26:04.138Z,7.07
2022-10-19T20:28:34.025Z,6.54
2022-10-19T20:31:06.606Z,6.81
2022-10-19T20:33:35.386Z,6.73
2022-10-19T20:36:08.009Z,6.54
2022-10-19T20:38:36.099Z,6.40
2022-10-19T20:41:07.778Z,6.59
2022-10-19T20:43:36.677Z,6.71
2022-10-19T20:46:15.179Z,6.66
2022-10-19T20:48:41.983Z,6.63
2022-10-19T20:51:32.541Z,6.52
2022-10-19T20:54:01.712Z,6.43
2022-10-19T20:56:33.339Z,5.45
2022-10-19T20:59:06.314Z,6.33
2022-10-19T21:01:34.943Z,6.20
2022-10-19T21:04:04.717Z,6.29
2022-10-19T21:06:33.337Z,6.26
2022-10-19T21:09:01.054Z,6.35
2022-10-19T21:11:30.799Z,6.36
2022-10-19T21:14:00.163Z,5.82
2022-10-19T21:16:28.423Z,6.42
2022-10-19T21:18:55.313Z,5.79
2022-10-19T21:21:23.565Z,6.47
2022-10-19T21:23:54.005Z,6.49
2022-10-19T21:26:21.027Z,6.32
2022-10-19T21:28:49.232Z,6.05
2022-10-19T21:31:17.862Z,6.27
2022-10-19T21:33:45.397Z,6.23
2022-10-19T21:36:14.090Z,6.13
2022-10-19T21:38:42.042Z,6.38
2022-10-19T21:41:19.675Z,6.03
2022-10-19T21:43:49.030Z,6.02
2022-10-19T21:46:18.397Z,5.70
2022-10-19T21:48:46.164Z,5.92
2022-10-19T21:51:34.280Z,5.87
2022-10-19T21:54:01.658Z,5.74
2022-10-19T21:56:28.609Z,5.48
2022-10-19T21:58:55.619Z,5.68
2022-10-19T22:01:25.549Z,5.53
2022-10-19T22:04:03.653Z,5.72
2022-10-19T22:06:33.394Z,5.66
2022-10-19T22:09:00.878Z,5.66
2022-10-19T22:11:28.317Z,5.23
2022-10-19T22:14:01.460Z,5.56
2022-10-19T22:16:29.499Z,5.45
2022-10-19T22:18:57.121Z,5.90
2022-10-19T22:21:27.957Z,5.84
2022-10-19T22:24:00.881Z,5.66
2022-10-19T22:26:29.911Z,5.70
2022-10-19T22:28:58.209Z,5.62
2022-10-19T22:31:26.840Z,5.53
2022-10-19T22:33:53.738Z,5.68
2022-10-19T22:36:20.695Z,5.41
2022-10-19T22:38:47.773Z,5.59
2022-10-19T22:41:14.450Z,5.73
2022-10-19T22:43:41.022Z,5.75
2022-10-19T22:46:07.819Z,5.50
2022-10-19T22:48:34.591Z,5.25
2022-10-19T22:51:01.170Z,5.70
2022-10-19T22:53:27.743Z,5.26
2022-10-19T22:55:54.513Z,5.55
2022-10-19T22:58:21.206Z,5.41
2022-10-19T23:01:08.688Z,5.51
2022-10-19T23:03:35.844Z,5.32
2022-10-19T23:06:02.499Z,5.32
2022-10-19T23:08:29.408Z,5.46
2022-10-19T23:10:56.132Z,5.20
2022-10-19T23:13:22.903Z,5.38
2022-10-19T23:15:50.799Z,5.33
2022-10-19T23:18:18.076Z,5.27
2022-10-19T23:20:57.158Z,5.58
2022-10-19T23:23:24.154Z,5.47
2022-10-19T23:26:05.845Z,5.27
2022-10-19T23:28:35.035Z,4.98
2022-10-19T23:31:14.197Z,5.53
2022-10-19T23:33:41.161Z,5.41
2022-10-19T23:36:17.102Z,4.73
2022-10-19T23:38:44.915Z,5.00
2022-10-19T23:41:12.289Z,5.50
2022-10-19T23:43:39.773Z,5.45
2022-10-19T23:46:06.982Z,5.13
2022-10-19T23:48:34.509Z,5.21
2022-10-19T23:51:04.212Z,5.52
2022-10-19T23:53:35.674Z,5.48
2022-10-19T23:56:14.212Z,5.49
2022-10-19T23:58:41.093Z,5.48
